| time (UTC) | temp C | wind direction | speed KPH | gust KPH | rain 1hr cm | rain 24hr cm | rain mn cm | humidity % | barometer mb |
| 20260906111219 | 37 | 0 | 0.0 | 0.0 | 0.00 | 0.00 | 0.00 | 20 | 915.0 |
| 20260906103657 | 35 | 0 | 0.0 | 0.0 | 0.00 | 0.00 | 0.00 | 22 | 916.0 |
| 20260906100135 | 32 | 0 | 0.0 | 0.0 | 0.00 | 0.00 | 0.00 | 21 | 916.0 |
| 20260906092613 | 32 | 0 | 0.0 | 0.0 | 0.00 | 0.00 | 0.00 | 22 | 916.0 |
| 20260906085051 | 32 | 0 | 0.0 | 0.0 | 0.00 | 0.00 | 0.00 | 23 | 916.0 |
| 20260906081528 | 32 | 0 | 0.0 | 0.0 | 0.00 | 0.00 | 0.00 | 24 | 916.0 |
| 20260906074006 | 32 | 0 | 0.0 | 0.0 | 0.00 | 0.00 | 0.00 | 24 | 917.0 |
| 20260906070443 | 33 | 0 | 0.0 | 0.0 | 0.00 | 0.00 | 0.00 | 23 | 917.0 |
| 20260906062921 | 33 | 0 | 0.0 | 0.0 | 0.00 | 0.00 | 0.00 | 22 | 917.0 |
| 20260906055359 | 36 | 0 | 0.0 | 0.0 | 0.00 | 0.00 | 0.00 | 20 | 916.0 |
| 20260906051837 | 32 | 0 | 0.0 | 0.0 | 0.00 | 0.00 | 0.00 | 22 | 917.0 |
| 20260906044315 | 28 | 0 | 0.0 | 0.0 | 0.00 | 0.00 | 0.00 | 28 | 917.0 |
| 20260906040752 | 28 | 0 | 0.0 | 0.0 | 0.00 | 0.00 | 0.00 | 29 | 916.0 |
| 20260906033230 | 28 | 0 | 0.0 | 0.0 | 0.00 | 0.00 | 0.00 | 28 | 916.0 |
| 20260906033122 | 28 | 0 | 0.0 | 0.0 | 0.00 | 0.00 | 0.00 | 28 | 916.0 |
| 20260906025600 | 28 | 0 | 0.0 | 0.0 | 0.00 | 0.00 | 0.00 | 28 | 916.0 |
| 20260906022038 | 28 | 0 | 0.0 | 0.0 | 0.00 | 0.00 | 0.00 | 27 | 916.0 |
| 20260906014516 | 29 | 0 | 0.0 | 0.0 | 0.00 | 0.00 | 0.00 | 27 | 916.0 |
| 20260906010954 | 29 | 0 | 0.0 | 0.0 | 0.00 | 0.00 | 0.00 | 27 | 916.0 |
| 20260906003431 | 30 | 0 | 0.0 | 0.0 | 0.00 | 0.00 | 0.00 | 25 | 916.0 |
| 20260905235909 | 30 | 0 | 0.0 | 0.0 | 0.00 | 0.00 | 0.00 | 23 | 916.0 |
| 20260905232346 | 30 | 0 | 0.0 | 0.0 | 0.00 | 0.00 | 0.00 | 23 | 916.0 |
| 20260905224824 | 30 | 0 | 0.0 | 0.0 | 0.00 | 0.00 | 0.00 | 23 | 916.0 |
| 20260905221302 | 30 | 0 | 0.0 | 0.0 | 0.00 | 0.00 | 0.00 | 23 | 916.0 |
| 20260905213740 | 30 | 0 | 0.0 | 0.0 | 0.00 | 0.00 | 0.00 | 23 | 916.0 |
| 20260905210218 | 30 | 0 | 0.0 | 0.0 | 0.00 | 0.00 | 0.00 | 24 | 916.0 |
| 20260905202655 | 30 | 0 | 0.0 | 0.0 | 0.00 | 0.00 | 0.00 | 24 | 916.0 |
| 20260905195133 | 30 | 0 | 0.0 | 0.0 | 0.00 | 0.00 | 0.00 | 24 | 916.0 |
| 20260905191611 | 30 | 0 | 0.0 | 0.0 | 0.00 | 0.00 | 0.00 | 23 | 916.0 |
| 20260905184048 | 31 | 0 | 0.0 | 0.0 | 0.00 | 0.00 | 0.00 | 22 | 916.0 |
| 20260905180526 | 31 | 0 | 0.0 | 0.0 | 0.00 | 0.00 | 0.00 | 22 | 916.0 |
| 20260905173004 | 31 | 0 | 0.0 | 0.0 | 0.00 | 0.00 | 0.00 | 22 | 915.0 |
| 20260905165442 | 31 | 0 | 0.0 | 0.0 | 0.00 | 0.00 | 0.00 | 23 | 915.0 |
| 20260905161920 | 32 | 0 | 0.0 | 0.0 | 0.00 | 0.00 | 0.00 | 24 | 915.0 |
| 20260905154357 | 32 | 0 | 0.0 | 0.0 | 0.00 | 0.00 | 0.00 | 25 | 915.0 |
| 20260905150834 | 32 | 0 | 0.0 | 0.0 | 0.00 | 0.00 | 0.00 | 24 | 915.0 |
| 20260905150727 | 33 | 0 | 0.0 | 0.0 | 0.00 | 0.00 | 0.00 | 22 | 915.0 |
| 20260905143205 | 33 | 0 | 0.0 | 0.0 | 0.00 | 0.00 | 0.00 | 22 | 915.0 |
| 20260905135643 | 35 | 0 | 0.0 | 0.0 | 0.00 | 0.00 | 0.00 | 21 | 915.0 |
| 20260905132121 | 35 | 0 | 0.0 | 0.0 | 0.00 | 0.00 | 0.00 | 20 | 915.0 |
| 20260905124558 | 36 | 0 | 0.0 | 0.0 | 0.00 | 0.00 | 0.00 | 20 | 915.0 |
| 20260905121036 | 36 | 0 | 0.0 | 0.0 | 0.00 | 0.00 | 0.00 | 19 | 916.0 |
| 20260905113514 | 37 | 0 | 0.0 | 0.0 | 0.00 | 0.00 | 0.00 | 20 | 916.0 |